createdAt,value
2022-11-22T00:07:29.811Z,31.60
2022-11-22T00:17:35.994Z,31.80
2022-11-22T00:27:42.191Z,29.80
2022-11-22T00:37:47.818Z,30.10
2022-11-22T00:47:53.596Z,26.90
2022-11-22T00:57:59.174Z,26.50
2022-11-22T01:08:04.911Z,26.50
2022-11-22T01:18:10.444Z,21.50
2022-11-22T01:28:16.179Z,26.80
2022-11-22T01:38:21.832Z,25.10
2022-11-22T01:48:38.727Z,24.30
2022-11-22T01:58:48.823Z,24.50
2022-11-22T02:09:00.472Z,20.40
2022-11-22T02:19:06.897Z,21.10
2022-11-22T02:29:12.929Z,18.30
2022-11-22T02:39:22.865Z,19.10
2022-11-22T02:49:28.725Z,18.40
2022-11-22T02:59:34.625Z,22.40
2022-11-22T03:09:40.442Z,23.40
2022-11-22T03:19:46.146Z,18.40
2022-11-22T03:29:51.951Z,20.70
2022-11-22T03:39:57.500Z,18.50
2022-11-22T03:50:03.131Z,16.70
2022-11-22T04:00:11.408Z,16.90
2022-11-22T04:10:22.062Z,17.80
2022-11-22T04:20:47.100Z,18.80
2022-11-22T04:31:10.859Z,20.60
2022-11-22T04:41:16.396Z,18.90
2022-11-22T04:51:39.392Z,20.30
2022-11-22T05:01:44.981Z,20.40
2022-11-22T05:11:50.644Z,22.50
2022-11-22T05:21:56.219Z,22.80
2022-11-22T05:32:01.787Z,20.20
2022-11-22T05:42:07.797Z,20.20
2022-11-22T05:52:13.737Z,22.10
2022-11-22T06:02:19.489Z,20.60
2022-11-22T06:12:25.174Z,19.80
2022-11-22T06:22:30.746Z,23.40
2022-11-22T06:32:37.093Z,22.10
2022-11-22T06:42:43.009Z,21.60
2022-11-22T06:52:54.545Z,21.80
2022-11-22T07:03:00.187Z,22.60
2022-11-22T07:13:05.794Z,24.10
2022-11-22T07:23:12.585Z,22.60
2022-11-22T07:33:18.387Z,26.30
2022-11-22T07:43:23.947Z,23.60
2022-11-22T07:53:30.027Z,22.60
2022-11-22T08:03:35.732Z,20.60
2022-11-22T08:13:42.520Z,23.20
2022-11-22T08:23:49.588Z,23.30
2022-11-22T08:44:00.320Z,21.40
2022-11-22T08:54:06.148Z,20.00
2022-11-22T09:04:11.857Z,18.30
2022-11-22T09:14:17.492Z,20.80
2022-11-22T09:24:23.114Z,21.90
2022-11-22T09:34:28.711Z,23.20
2022-11-22T09:44:46.307Z,22.20
2022-11-22T09:54:56.716Z,26.00
2022-11-22T10:05:04.876Z,24.30
2022-11-22T10:15:20.918Z,21.00
2022-11-22T10:25:35.713Z,25.20
2022-11-22T10:36:06.355Z,25.10
2022-11-22T10:46:20.101Z,24.40
2022-11-22T10:56:31.462Z,23.20
2022-11-22T11:07:10.470Z,21.10
2022-11-22T11:17:08.140Z,22.10
2022-11-22T11:37:27.938Z,25.40
2022-11-22T11:47:37.620Z,23.80
2022-11-22T11:57:46.073Z,23.20
2022-11-22T12:07:51.695Z,24.00
2022-11-22T12:18:05.690Z,21.80
2022-11-22T12:28:21.631Z,21.50
2022-11-22T12:38:32.756Z,25.50
2022-11-22T12:48:48.960Z,24.90
2022-11-22T12:59:02.541Z,28.10
2022-11-22T13:09:12.721Z,23.00
2022-11-22T13:19:21.068Z,21.60
2022-11-22T13:29:29.136Z,25.30
2022-11-22T13:39:37.800Z,25.40
2022-11-22T13:49:48.675Z,24.90
2022-11-22T14:00:25.765Z,20.70
2022-11-22T14:10:35.798Z,22.60
2022-11-22T14:20:55.320Z,21.40
2022-11-22T14:31:01.231Z,20.40
2022-11-22T14:41:42.093Z,21.60
2022-11-22T14:51:53.089Z,23.80
2022-11-22T15:02:20.339Z,21.10
2022-11-22T15:12:56.766Z,21.50
2022-11-22T16:06:05.813Z,23.50
2022-11-22T16:15:37.207Z,23.70
2022-11-22T16:25:45.245Z,23.90
2022-11-22T16:35:55.367Z,24.10
2022-11-22T16:46:01.089Z,28.30
2022-11-22T16:56:07.594Z,29.20
2022-11-22T17:06:18.685Z,30.40
2022-11-22T17:16:24.503Z,30.40
2022-11-22T17:26:32.641Z,30.00
2022-11-22T17:36:39.059Z,27.60
2022-11-22T17:46:45.151Z,26.50
2022-11-22T17:56:50.747Z,28.20
2022-11-22T18:06:56.401Z,25.20
2022-11-22T18:17:02.539Z,27.90
2022-11-22T18:27:08.234Z,27.90
2022-11-22T18:37:13.841Z,32.10
2022-11-22T18:47:19.607Z,30.40
2022-11-22T18:57:25.280Z,33.20
2022-11-22T19:07:31.053Z,28.10
2022-11-22T19:17:39.053Z,26.60
2022-11-22T19:27:47.867Z,28.30
2022-11-22T19:37:53.484Z,25.80
2022-11-22T19:47:59.615Z,28.30
2022-11-22T19:58:05.975Z,26.90
2022-11-22T20:08:11.691Z,29.50
2022-11-22T20:18:17.316Z,26.00
2022-11-22T20:28:23.027Z,28.90
2022-11-22T20:38:28.778Z,27.10
2022-11-22T20:48:35.896Z,26.90
2022-11-22T20:58:42.195Z,24.20
2022-11-22T21:08:48.097Z,26.30
2022-11-22T21:18:54.941Z,24.10
2022-11-22T21:39:05.283Z,20.80
2022-11-22T21:49:11.002Z,25.00
2022-11-22T21:59:17.709Z,26.00
2022-11-22T22:09:23.343Z,24.50
2022-11-22T22:19:29.265Z,22.90
2022-11-22T22:29:35.328Z,25.30
2022-11-22T22:39:41.310Z,27.00
2022-11-22T22:49:46.968Z,28.40
2022-11-22T22:59:53.092Z,26.90
2022-11-22T23:09:58.711Z,26.10
2022-11-22T23:20:04.578Z,26.90
2022-11-22T23:30:11.904Z,25.50
2022-11-22T23:40:18.121Z,25.10
2022-11-22T23:50:23.735Z,26.50
